createdAt,value
2022-08-22T00:00:26.609Z,100140.75
2022-08-22T00:02:54.059Z,100115.50
2022-08-22T00:05:47.696Z,100153.38
2022-08-22T00:10:55.464Z,100151.72
2022-08-22T00:16:03.999Z,100154.19
2022-08-22T00:21:10.784Z,100160.25
2022-08-22T00:26:22.166Z,100152.28
2022-08-22T00:31:27.497Z,100149.34
2022-08-22T00:36:33.092Z,100161.69
2022-08-22T00:41:46.161Z,100165.69
2022-08-22T00:46:57.139Z,100152.09
2022-08-22T00:52:24.092Z,100157.69
2022-08-22T00:57:40.276Z,100156.69
2022-08-22T01:02:59.657Z,100152.28
2022-08-22T01:08:18.077Z,100164.88
2022-08-22T01:13:29.364Z,100168.19
2022-08-22T01:18:50.248Z,100167.44
2022-08-22T01:24:22.266Z,100168.53
2022-08-22T01:29:49.868Z,100173.72
2022-08-22T01:35:11.433Z,100180.31
2022-08-22T01:40:33.019Z,100173.47
2022-08-22T01:45:53.923Z,100180.75
2022-08-22T01:50:59.505Z,100171.38
2022-08-22T01:56:07.170Z,100165.91
2022-08-22T02:01:17.801Z,100162.84
2022-08-22T02:06:25.413Z,100158.09
2022-08-22T02:11:36.275Z,100163.28
2022-08-22T02:16:40.872Z,100177.47
2022-08-22T02:21:48.762Z,100170.50
2022-08-22T02:26:55.234Z,100168.50
2022-08-22T02:32:01.843Z,100162.41
2022-08-22T02:37:09.596Z,100172.34
2022-08-22T02:42:18.298Z,100170.53
2022-08-22T02:47:27.851Z,100177.09
2022-08-22T02:52:35.961Z,100173.63
2022-08-22T02:57:43.860Z,100189.06
2022-08-22T03:03:00.266Z,100183.44
2022-08-22T03:08:10.046Z,100186.66
2022-08-22T03:13:19.634Z,100187.25
2022-08-22T03:18:26.295Z,100190.06
2022-08-22T03:23:37.614Z,100188.44
2022-08-22T03:28:59.721Z,100196.13
2022-08-22T03:34:21.427Z,100197.41
2022-08-22T03:39:37.200Z,100200.06
2022-08-22T03:44:54.199Z,100202.06
2022-08-22T03:50:11.784Z,100193.72
2022-08-22T03:55:22.665Z,100207.22
2022-08-22T04:00:35.909Z,100216.31
2022-08-22T04:05:58.349Z,100220.25
2022-08-22T04:11:21.582Z,100224.34
2022-08-22T04:16:39.398Z,100218.88
2022-08-22T04:21:54.325Z,100215.91
2022-08-22T04:26:59.053Z,100225.22
2022-08-22T04:32:10.634Z,100225.13
2022-08-22T04:37:22.419Z,100225.97
2022-08-22T04:42:33.015Z,100238.06
2022-08-22T04:47:39.079Z,100241.56
2022-08-22T04:52:54.121Z,100248.28
2022-08-22T04:58:06.524Z,100242.66
2022-08-22T05:03:12.711Z,100233.44
2022-08-22T05:08:20.957Z,100239.81
2022-08-22T05:13:26.089Z,100245.09
2022-08-22T05:18:30.164Z,100244.44
2022-08-22T05:23:39.547Z,100239.38
2022-08-22T05:28:45.479Z,100251.66
2022-08-22T05:33:50.911Z,100256.63
2022-08-22T05:38:57.813Z,100252.69
2022-08-22T05:44:01.192Z,100254.88
2022-08-22T05:49:05.901Z,100249.41
2022-08-22T05:54:13.955Z,100250.66
2022-08-22T05:59:23.170Z,100251.91
2022-08-22T06:04:28.390Z,100248.97
2022-08-22T06:09:35.497Z,100246.91
2022-08-22T06:14:43.300Z,100247.22
2022-08-22T06:19:48.139Z,100250.06
2022-08-22T06:24:54.082Z,100251.50
2022-08-22T06:29:59.655Z,100245.78
2022-08-22T06:35:05.019Z,100249.00
2022-08-22T06:40:13.336Z,100252.66
2022-08-22T06:45:18.304Z,100254.75
2022-08-22T06:50:24.372Z,100251.53
2022-08-22T06:55:29.767Z,100255.41
2022-08-22T07:00:34.543Z,100257.75
2022-08-22T07:05:39.091Z,100259.84
2022-08-22T07:10:45.237Z,100261.34
2022-08-22T07:15:53.737Z,100263.03
2022-08-22T07:21:02.862Z,100260.97
2022-08-22T07:26:14.899Z,100264.72
2022-08-22T07:31:25.520Z,100272.72
2022-08-22T07:36:32.097Z,100260.19
2022-08-22T07:41:43.363Z,100270.41
2022-08-22T07:46:51.811Z,100271.25
2022-08-22T07:51:56.629Z,100271.53
2022-08-22T07:57:04.370Z,100272.72
2022-08-22T08:02:10.092Z,100267.66
2022-08-22T08:07:15.973Z,100270.84
2022-08-22T08:12:22.151Z,100270.63
2022-08-22T08:17:31.408Z,100266.59
2022-08-22T08:22:35.627Z,100266.16
2022-08-22T08:27:57.385Z,100273.59
2022-08-22T08:33:25.486Z,100266.69
2022-08-22T08:38:28.546Z,100261.66
2022-08-22T08:43:41.699Z,100262.81
2022-08-22T08:49:06.528Z,100263.97
2022-08-22T08:54:16.189Z,100268.94
2022-08-22T08:59:27.311Z,100256.34
2022-08-22T09:04:39.073Z,100260.25
2022-08-22T09:09:52.301Z,100259.19
2022-08-22T09:15:11.901Z,100261.13
2022-08-22T09:20:50.291Z,100253.66
2022-08-22T09:25:57.224Z,100251.78
2022-08-22T09:31:47.492Z,100255.22
2022-08-22T09:36:59.927Z,100254.22
2022-08-22T09:42:08.438Z,100250.19
2022-08-22T09:47:17.717Z,100243.72
2022-08-22T09:52:36.782Z,100244.06
2022-08-22T09:57:42.303Z,100238.25
2022-08-22T10:02:50.256Z,100242.25
2022-08-22T10:08:01.656Z,100242.25
2022-08-22T10:13:10.796Z,100252.03
2022-08-22T10:18:19.204Z,100244.75
2022-08-22T10:23:25.267Z,100258.28
2022-08-22T10:28:33.744Z,100254.75
2022-08-22T10:33:41.125Z,100254.81
2022-08-22T10:38:51.033Z,100262.03
2022-08-22T10:44:01.475Z,100265.44
2022-08-22T10:49:09.287Z,100254.63
2022-08-22T10:54:20.319Z,100256.72
2022-08-22T10:59:29.180Z,100263.44
2022-08-22T11:04:40.660Z,100260.38
2022-08-22T11:09:45.072Z,100254.69
2022-08-22T11:15:05.687Z,100263.09
2022-08-22T11:20:15.773Z,100252.31
2022-08-22T11:25:35.904Z,100262.13
2022-08-22T11:30:46.550Z,100260.31
2022-08-22T11:35:58.062Z,100255.44
2022-08-22T11:41:13.126Z,100255.34
2022-08-22T11:46:20.014Z,100257.41
2022-08-22T11:51:34.129Z,100258.59
2022-08-22T11:56:45.175Z,100250.00
2022-08-22T12:01:50.840Z,100256.44
2022-08-22T12:06:59.353Z,100259.34
2022-08-22T12:12:13.283Z,100253.66
2022-08-22T12:17:51.146Z,100256.53
2022-08-22T12:22:52.436Z,100250.97
2022-08-22T12:28:01.603Z,100248.91
2022-08-22T12:33:23.062Z,100253.41
2022-08-22T12:38:37.431Z,100256.31
2022-08-22T12:43:52.115Z,100254.25
2022-08-22T12:49:11.239Z,100251.72
2022-08-22T12:54:35.332Z,100245.06
2022-08-22T12:59:43.176Z,100250.38
2022-08-22T13:04:53.552Z,100242.88
2022-08-22T13:09:59.234Z,100248.66
2022-08-22T13:15:10.945Z,100249.16
2022-08-22T13:20:22.882Z,100240.78
2022-08-22T13:25:30.933Z,100245.78
2022-08-22T13:30:37.725Z,100242.47
2022-08-22T13:35:44.760Z,100243.84
2022-08-22T13:40:55.536Z,100243.34
2022-08-22T13:46:02.005Z,100234.97
2022-08-22T13:51:08.143Z,100238.81
2022-08-22T13:56:15.682Z,100236.16
2022-08-22T14:01:28.747Z,100233.72
2022-08-22T14:06:41.554Z,100223.66
2022-08-22T14:11:49.446Z,100220.97
2022-08-22T14:16:55.646Z,100214.19
2022-08-22T14:22:00.217Z,100210.13
2022-08-22T14:27:06.432Z,100210.88
2022-08-22T14:32:35.117Z,100217.50
2022-08-22T14:37:41.628Z,100218.84
2022-08-22T14:42:47.007Z,100218.63
2022-08-22T14:47:55.061Z,100218.16
2022-08-22T14:53:25.315Z,100209.81
2022-08-22T14:58:29.221Z,100224.47
2022-08-22T15:03:35.141Z,100215.13
2022-08-22T15:08:42.453Z,100207.41
2022-08-22T15:14:07.378Z,100197.94
2022-08-22T15:19:26.451Z,100206.78
2022-08-22T15:24:31.315Z,100215.28
2022-08-22T15:29:37.460Z,100211.75
2022-08-22T15:34:44.352Z,100214.03
2022-08-22T15:39:59.745Z,100199.38
2022-08-22T15:45:03.355Z,100201.41
2022-08-22T15:50:11.403Z,100204.44
2022-08-22T15:55:23.585Z,100196.94
2022-08-22T16:00:29.329Z,100194.50
2022-08-22T16:05:45.511Z,100197.53
2022-08-22T16:10:50.794Z,100200.41
2022-08-22T16:16:00.085Z,100199.94
2022-08-22T16:21:05.437Z,100199.44
2022-08-22T16:26:10.668Z,100211.41
2022-08-22T16:31:19.507Z,100213.47
2022-08-22T16:36:41.126Z,100209.34
2022-08-22T16:41:44.912Z,100224.56
2022-08-22T16:46:48.602Z,100215.06
2022-08-22T16:52:10.149Z,100221.38
2022-08-22T16:57:22.432Z,100212.66
2022-08-22T17:02:37.485Z,100214.81
2022-08-22T17:07:51.066Z,100214.56
2022-08-22T17:13:02.955Z,100222.97
2022-08-22T17:18:15.048Z,100226.81
2022-08-22T17:23:26.102Z,100245.06
2022-08-22T17:28:38.797Z,100249.00
2022-08-22T17:33:54.224Z,100252.13
2022-08-22T17:39:04.801Z,100257.16
2022-08-22T17:44:14.446Z,100261.22
2022-08-22T17:49:22.384Z,100262.09
2022-08-22T17:54:30.131Z,100269.84
2022-08-22T17:59:36.081Z,100280.31
2022-08-22T18:04:47.247Z,100281.59
2022-08-22T18:09:54.121Z,100295.50
2022-08-22T18:15:01.134Z,100291.34
2022-08-22T18:20:09.033Z,100305.50
2022-08-22T18:25:15.484Z,100307.72
2022-08-22T18:30:21.723Z,100304.66
2022-08-22T18:35:27.314Z,100316.34
2022-08-22T18:40:46.909Z,100326.53
2022-08-22T18:46:04.045Z,100321.41
2022-08-22T18:51:15.887Z,100314.47
2022-08-22T18:56:22.940Z,100318.22
2022-08-22T19:01:42.192Z,100309.63
2022-08-22T19:06:56.167Z,100312.47
2022-08-22T19:12:07.435Z,100306.28
2022-08-22T19:17:24.063Z,100309.56
2022-08-22T19:22:33.783Z,100315.28
2022-08-22T19:27:39.582Z,100315.91
2022-08-22T19:33:01.515Z,100313.00
2022-08-22T19:38:06.100Z,100304.22
2022-08-22T19:43:20.374Z,100309.41
2022-08-22T19:48:29.593Z,100308.97
2022-08-22T19:53:36.967Z,100314.63
2022-08-22T19:58:50.471Z,100324.03
2022-08-22T20:03:57.383Z,100326.13
2022-08-22T20:09:08.283Z,100332.59
2022-08-22T20:14:12.409Z,100325.69
2022-08-22T20:19:22.349Z,100332.13
2022-08-22T20:24:30.546Z,100329.25
2022-08-22T20:29:34.992Z,100318.09
2022-08-22T20:34:40.105Z,100312.97
2022-08-22T20:39:49.924Z,100306.81
2022-08-22T20:45:02.374Z,100328.84
2022-08-22T20:50:20.425Z,100327.75
2022-08-22T20:55:27.334Z,100327.75
2022-08-22T21:00:40.945Z,100316.66
2022-08-22T21:05:46.358Z,100319.25
2022-08-22T21:11:16.145Z,100319.44
2022-08-22T21:16:20.335Z,100316.22
2022-08-22T21:21:26.233Z,100310.38
2022-08-22T21:26:30.804Z,100309.78
2022-08-22T21:31:36.332Z,100317.38
2022-08-22T21:36:40.658Z,100318.66
2022-08-22T21:41:44.696Z,100311.69
2022-08-22T21:46:47.813Z,100300.88
2022-08-22T21:51:57.044Z,100304.66
2022-08-22T21:57:01.347Z,100308.06
2022-08-22T22:02:19.200Z,100303.53
2022-08-22T22:07:24.627Z,100290.97
2022-08-22T22:12:27.625Z,100294.28
2022-08-22T22:17:30.574Z,100292.13
2022-08-22T22:22:36.932Z,100286.16
2022-08-22T22:27:45.789Z,100275.63
2022-08-22T22:32:48.780Z,100269.00
2022-08-22T22:37:57.020Z,100272.53
2022-08-22T22:43:00.015Z,100265.25
2022-08-22T22:48:03.336Z,100259.09
2022-08-22T22:53:07.943Z,100268.94
2022-08-22T22:58:13.640Z,100269.50
2022-08-22T23:03:17.650Z,100267.06
2022-08-22T23:08:21.959Z,100281.53
2022-08-22T23:13:24.919Z,100278.56
2022-08-22T23:18:30.683Z,100288.31
2022-08-22T23:23:36.559Z,100284.28
2022-08-22T23:28:39.902Z,100284.44
2022-08-22T23:33:43.194Z,100273.38
2022-08-22T23:38:48.124Z,100275.72
2022-08-22T23:43:53.369Z,100280.56
2022-08-22T23:48:56.333Z,100273.66
2022-08-22T23:54:01.235Z,100292.34
2022-08-22T23:59:06.024Z,100296.81
